Time;durP1;ratioP1;P1;durP2;ratioP2;P2;SDS_P1;SDS_P2;PMS_P1;PMS_P2;Temp;Humidity;BMP_temperature;BMP_pressure;BME280_temperature;BME280_humidity;BME280_pressure;Samples;Min_cycle;Max_cycle;Signal;HPM_P1;HPM_P2
2024/02/06 00:00:13;;;;;;;7.80;2.92;;;8.70;36.90;;;;;;5047843;28;20203;-68
2024/02/06 00:02:40;;;;;;;7.72;3.75;;;8.60;37.20;;;;;;5036157;28;20274;-69
2024/02/06 00:05:12;;;;;;;6.78;2.67;;;8.40;37.80;;;;;;5035751;28;20638;-69
2024/02/06 00:07:39;;;;;;;6.93;2.95;;;8.20;38.20;;;;;;5035685;28;20234;-69
2024/02/06 00:10:12;;;;;;;12.80;4.25;;;8.10;38.80;;;;;;5034924;28;20306;-69
2024/02/06 00:12:40;;;;;;;6.18;2.85;;;7.90;38.90;;;;;;5036126;28;20180;-68
2024/02/06 00:15:10;;;;;;;5.80;3.35;;;7.80;39.30;;;;;;5035723;28;20274;-68
2024/02/06 00:17:38;;;;;;;5.47;2.63;;;7.70;39.40;;;;;;5035534;28;20192;-68
2024/02/06 00:20:06;;;;;;;5.78;2.67;;;7.60;39.90;;;;;;5035625;28;20246;-68
2024/02/06 00:22:33;;;;;;;5.20;2.30;;;7.50;40.10;;;;;;5035370;28;20198;-68
2024/02/06 00:25:00;;;;;;;5.47;2.60;;;7.50;40.30;;;;;;5035806;28;20242;-68
2024/02/06 00:27:27;;;;;;;6.40;3.00;;;7.40;40.50;;;;;;5035654;28;20605;-68
2024/02/06 00:29:56;;;;;;;6.35;3.80;;;7.30;40.90;;;;;;5035100;28;20297;-68
2024/02/06 00:32:27;;;;;;;6.18;3.70;;;7.10;41.30;;;;;;5035397;28;20223;-68
2024/02/06 00:34:56;;;;;;;7.28;3.30;;;7.10;41.30;;;;;;5035034;28;20176;-67
2024/02/06 00:37:25;;;;;;;7.45;3.22;;;6.90;41.60;;;;;;5034957;28;20664;-67
2024/02/06 00:39:52;;;;;;;4.78;2.78;;;6.90;41.70;;;;;;5035225;28;20200;-67
2024/02/06 00:42:19;;;;;;;6.75;3.10;;;6.80;41.90;;;;;;5034932;28;20226;-69
2024/02/06 00:44:46;;;;;;;7.20;2.33;;;6.70;42.10;;;;;;5035053;28;20223;-69
2024/02/06 00:47:16;;;;;;;4.55;2.13;;;6.60;42.10;;;;;;5048495;28;20230;-69
2024/02/06 00:49:43;;;;;;;4.43;2.65;;;6.70;42.10;;;;;;5055077;28;20218;-68
2024/02/06 00:52:10;;;;;;;4.72;2.20;;;6.80;42.00;;;;;;5055059;28;20687;-68
2024/02/06 00:54:37;;;;;;;10.23;2.63;;;6.80;41.70;;;;;;5054736;28;20281;-68
2024/02/06 00:57:09;;;;;;;5.03;3.17;;;6.90;41.60;;;;;;5054912;28;20191;-68
2024/02/06 00:59:36;;;;;;;5.13;2.00;;;7.00;41.40;;;;;;5054649;28;20664;-68
2024/02/06 01:02:16;;;;;;;4.82;1.73;;;7.10;41.10;;;;;;5054495;28;20205;-68
2024/02/06 01:04:45;;;;;;;10.68;3.65;;;7.30;40.60;;;;;;5054443;28;20183;-68
2024/02/06 01:07:12;;;;;;;7.55;3.15;;;7.20;40.60;;;;;;5054500;28;20194;-68
2024/02/06 01:09:41;;;;;;;5.85;2.20;;;7.30;40.60;;;;;;5055385;28;20218;-68
2024/02/06 01:12:08;;;;;;;8.68;3.08;;;7.30;40.40;;;;;;5054832;28;20652;-68
2024/02/06 01:14:37;;;;;;;3.40;1.95;;;7.30;40.30;;;;;;5055386;28;20222;-68
2024/02/06 01:17:05;;;;;;;4.22;1.80;;;7.40;40.40;;;;;;5055504;28;20187;-68
2024/02/06 01:19:35;;;;;;;5.47;3.05;;;7.50;40.20;;;;;;5054978;28;20226;-68
2024/02/06 01:22:04;;;;;;;9.32;2.80;;;7.50;39.90;;;;;;5054683;28;20190;-68
2024/02/06 01:24:37;;;;;;;6.93;2.47;;;7.50;39.70;;;;;;5054242;28;20197;-68
2024/02/06 01:27:06;;;;;;;3.45;1.90;;;7.50;39.70;;;;;;5054441;28;20179;-68
2024/02/06 01:29:34;;;;;;;5.28;2.30;;;7.50;39.50;;;;;;5054569;28;20190;-68
2024/02/06 01:32:04;;;;;;;7.00;1.92;;;7.50;39.40;;;;;;5054271;28;20620;-68
2024/02/06 01:34:33;;;;;;;3.88;1.80;;;7.50;40.10;;;;;;5054309;28;20179;-68
2024/02/06 01:37:00;;;;;;;3.70;1.70;;;7.40;39.50;;;;;;5054182;28;20195;-68
2024/02/06 01:39:29;;;;;;;4.20;1.50;;;7.50;39.40;;;;;;5053990;28;20261;-68
2024/02/06 01:41:57;;;;;;;3.88;1.73;;;7.60;39.10;;;;;;5053774;28;20187;-68
2024/02/06 01:44:26;;;;;;;3.60;1.90;;;7.70;38.80;;;;;;5054336;28;20198;-68
2024/02/06 01:46:54;;;;;;;3.90;1.92;;;7.80;38.60;;;;;;5053728;28;20259;-68
2024/02/06 01:49:23;;;;;;;3.15;1.40;;;7.90;38.30;;;;;;5053760;28;20225;-69
2024/02/06 01:51:53;;;;;;;3.78;1.40;;;8.00;38.10;;;;;;5053522;28;20732;-69
2024/02/06 01:54:21;;;;;;;3.45;1.42;;;8.10;38.00;;;;;;5053646;28;20179;-69
2024/02/06 01:56:50;;;;;;;4.43;1.63;;;8.20;37.60;;;;;;5053938;28;20191;-68
2024/02/06 01:59:18;;;;;;;4.40;1.23;;;8.20;37.50;;;;;;5053845;28;20195;-68
2024/02/06 02:01:46;;;;;;;7.35;2.30;;;8.20;37.50;;;;;;5073181;28;20190;-68
2024/02/06 02:04:14;;;;;;;6.57;1.55;;;8.30;37.20;;;;;;5073916;28;20559;-68
2024/02/06 02:06:41;;;;;;;3.08;1.42;;;8.30;37.20;;;;;;5073684;28;20273;-68
2024/02/06 02:09:09;;;;;;;3.70;1.52;;;8.40;37.00;;;;;;5073313;28;20198;-68
2024/02/06 02:11:41;;;;;;;8.07;1.85;;;8.40;37.10;;;;;;5072818;28;20218;-68
2024/02/06 02:14:15;;;;;;;3.20;1.38;;;8.40;37.10;;;;;;5054216;28;20523;-68
2024/02/06 02:16:42;;;;;;;2.85;1.48;;;8.40;37.10;;;;;;5053678;28;20210;-69
2024/02/06 02:19:10;;;;;;;4.07;1.33;;;8.40;37.20;;;;;;5053359;28;20194;-69
2024/02/06 02:21:40;;;;;;;3.47;1.63;;;8.40;37.20;;;;;;5053587;28;20197;-68
2024/02/06 02:24:11;;;;;;;4.10;2.17;;;8.40;37.80;;;;;;5053406;28;20337;-68
2024/02/06 02:26:43;;;;;;;2.72;1.30;;;8.40;37.20;;;;;;5053577;28;20211;-68
2024/02/06 02:29:14;;;;;;;3.17;1.05;;;8.30;37.20;;;;;;5053660;28;20183;-68
2024/02/06 02:31:46;;;;;;;5.60;1.60;;;8.30;37.20;;;;;;5064091;28;20206;-68
2024/02/06 02:34:15;;;;;;;3.03;1.95;;;8.30;37.20;;;;;;5075023;28;20212;-68
2024/02/06 02:36:44;;;;;;;5.28;1.38;;;8.30;37.20;;;;;;5077319;28;20186;-68
2024/02/06 02:39:13;;;;;;;3.20;1.17;;;8.30;37.40;;;;;;5077437;28;20185;-68
2024/02/06 02:41:41;;;;;;;3.47;1.30;;;8.30;37.40;;;;;;5076715;28;20186;-68
2024/02/06 02:44:08;;;;;;;3.35;1.52;;;8.30;37.30;;;;;;5077500;28;20591;-69
2024/02/06 02:46:41;;;;;;;4.82;2.13;;;8.30;37.30;;;;;;5075013;28;20225;-68
2024/02/06 02:49:08;;;;;;;2.97;0.90;;;8.40;37.30;;;;;;5077350;28;20178;-68
2024/02/06 02:51:41;;;;;;;5.05;1.25;;;8.40;37.20;;;;;;5076675;28;20308;-68
2024/02/06 02:54:11;;;;;;;2.60;1.15;;;8.40;37.10;;;;;;5077029;28;20190;-69
2024/02/06 02:56:38;;;;;;;2.92;1.30;;;8.50;37.00;;;;;;5077041;28;20187;-69
2024/02/06 02:59:08;;;;;;;4.95;1.92;;;8.40;37.00;;;;;;5077038;28;20529;-69
2024/02/06 03:01:35;;;;;;;5.10;1.13;;;8.40;37.10;;;;;;5076429;28;20186;-68
2024/02/06 03:04:03;;;;;;;2.90;1.27;;;8.50;36.80;;;;;;5076539;28;20190;-69
2024/02/06 03:06:30;;;;;;;3.45;1.30;;;8.60;36.70;;;;;;5076855;28;20301;-68
2024/02/06 03:08:58;;;;;;;3.55;1.40;;;8.70;36.30;;;;;;5076833;28;20275;-68
2024/02/06 03:11:27;;;;;;;2.45;0.98;;;8.90;36.10;;;;;;5075992;28;20209;-68
2024/02/06 03:13:56;;;;;;;4.35;1.42;;;8.90;36.00;;;;;;5076367;28;20197;-68
2024/02/06 03:16:24;;;;;;;6.13;1.52;;;9.00;35.80;;;;;;5076713;28;20618;-68
2024/02/06 03:18:53;;;;;;;3.42;1.10;;;9.00;35.60;;;;;;5076565;28;20190;-68
2024/02/06 03:21:21;;;;;;;3.95;1.38;;;9.10;35.30;;;;;;5075943;28;20187;-69
2024/02/06 03:23:51;;;;;;;4.43;1.58;;;9.20;35.30;;;;;;5076518;28;20628;-69
2024/02/06 03:26:21;;;;;;;3.25;1.88;;;9.20;34.90;;;;;;5076307;28;20663;-68
2024/02/06 03:28:50;;;;;;;3.67;1.58;;;9.30;35.20;;;;;;5076568;28;20195;-69
2024/02/06 03:31:18;;;;;;;3.90;1.42;;;9.20;35.40;;;;;;5075439;28;20229;-69
2024/02/06 03:33:46;;;;;;;3.95;1.50;;;9.30;34.70;;;;;;5063722;28;20183;-68
2024/02/06 03:36:15;;;;;;;3.45;1.40;;;9.40;34.70;;;;;;5056207;28;20210;-68
2024/02/06 03:38:43;;;;;;;3.00;1.30;;;9.40;34.70;;;;;;5055945;28;20644;-68
2024/02/06 03:41:16;;;;;;;4.18;1.70;;;9.50;34.40;;;;;;5062429;28;20187;-69
2024/02/06 03:43:44;;;;;;;3.70;1.42;;;9.60;33.80;;;;;;5076547;28;20194;-68
2024/02/06 03:46:14;;;;;;;2.53;1.05;;;9.70;33.30;;;;;;5075731;28;20742;-69
2024/02/06 03:48:42;;;;;;;3.08;0.85;;;9.80;33.10;;;;;;5075781;28;20190;-68
2024/02/06 03:51:12;;;;;;;2.90;1.17;;;10.00;32.10;;;;;;5075207;28;20639;-69
2024/02/06 03:53:40;;;;;;;2.70;0.82;;;10.10;31.50;;;;;;5076241;28;20190;-68
2024/02/06 03:56:09;;;;;;;2.58;1.20;;;10.30;31.00;;;;;;5075921;28;20709;-69
2024/02/06 03:58:38;;;;;;;5.35;1.23;;;10.30;30.90;;;;;;5075992;28;20193;-69
2024/02/06 04:01:06;;;;;;;3.45;1.60;;;10.40;30.40;;;;;;5075617;28;20264;-69
2024/02/06 04:03:35;;;;;;;3.53;1.20;;;10.60;30.20;;;;;;5075992;28;20201;-69
2024/02/06 04:06:07;;;;;;;4.30;1.27;;;10.70;30.10;;;;;;5075796;28;20201;-69
2024/02/06 04:08:35;;;;;;;2.72;0.90;;;10.90;29.80;;;;;;5076121;28;20178;-69
2024/02/06 04:11:04;;;;;;;2.90;1.05;;;11.00;29.40;;;;;;5075118;28;20206;-69
2024/02/06 04:13:32;;;;;;;4.13;0.80;;;11.10;28.80;;;;;;5075010;28;20196;-69
2024/02/06 04:15:59;;;;;;;4.43;1.25;;;11.20;28.50;;;;;;5075499;28;20194;-69
2024/02/06 04:18:29;;;;;;;3.92;1.73;;;11.30;28.30;;;;;;5075500;28;20185;-69
2024/02/06 04:20:58;;;;;;;3.75;1.17;;;11.40;28.40;;;;;;5075023;28;20189;-69
2024/02/06 04:23:26;;;;;;;3.25;1.00;;;11.50;27.90;;;;;;5059265;28;20195;-69
2024/02/06 04:25:53;;;;;;;2.45;1.20;;;11.50;28.00;;;;;;5055219;28;20198;-69
2024/02/06 04:28:21;;;;;;;3.30;1.08;;;11.60;27.90;;;;;;5055784;28;20545;-69
2024/02/06 04:30:50;;;;;;;3.85;1.35;;;11.60;28.10;;;;;;5055043;28;20252;-69
2024/02/06 04:33:18;;;;;;;2.88;1.15;;;11.60;28.20;;;;;;5055118;28;20194;-69
2024/02/06 04:35:47;;;;;;;4.90;1.20;;;11.60;28.10;;;;;;5054959;28;20190;-69
2024/02/06 04:38:17;;;;;;;4.20;1.45;;;11.60;28.40;;;;;;5055015;28;20656;-69
2024/02/06 04:40:44;;;;;;;3.50;1.50;;;11.60;28.10;;;;;;5056986;28;20552;-69
2024/02/06 04:43:12;;;;;;;2.83;1.50;;;11.60;28.30;;;;;;5075047;28;20194;-69
2024/02/06 04:45:40;;;;;;;5.50;1.23;;;11.60;28.40;;;;;;5074716;28;20557;-69
2024/02/06 04:48:08;;;;;;;3.90;1.33;;;11.60;28.20;;;;;;5074863;28;20197;-69
2024/02/06 04:50:36;;;;;;;3.28;1.17;;;11.60;28.30;;;;;;5073007;28;20193;-69
2024/02/06 04:53:04;;;;;;;4.40;1.25;;;11.60;28.40;;;;;;5073807;28;20236;-69
2024/02/06 04:55:34;;;;;;;2.92;1.35;;;11.60;28.40;;;;;;5072795;28;20274;-69
2024/02/06 04:58:02;;;;;;;2.53;1.00;;;11.60;28.50;;;;;;5073848;28;20197;-69
2024/02/06 05:00:31;;;;;;;4.20;1.30;;;11.60;28.30;;;;;;5073699;28;20251;-69
2024/02/06 05:03:04;;;;;;;2.90;1.00;;;11.60;28.40;;;;;;5054897;28;20202;-69
2024/02/06 05:05:31;;;;;;;3.40;1.35;;;11.60;28.30;;;;;;5054341;28;20178;-69
2024/02/06 05:07:59;;;;;;;4.70;1.43;;;11.60;28.40;;;;;;5054668;28;20190;-69
2024/02/06 05:10:31;;;;;;;3.67;1.17;;;11.70;28.40;;;;;;5054499;28;20433;-69
2024/02/06 05:13:00;;;;;;;3.25;1.20;;;11.60;28.20;;;;;;5055042;28;20653;-69
2024/02/06 05:15:29;;;;;;;3.00;1.00;;;11.60;28.20;;;;;;5054086;28;20198;-69
2024/02/06 05:17:58;;;;;;;3.00;1.35;;;11.60;28.40;;;;;;5054345;28;20197;-69
2024/02/06 05:20:26;;;;;;;4.18;1.27;;;11.60;28.30;;;;;;5054254;28;20597;-69
2024/02/06 05:22:53;;;;;;;2.35;1.20;;;11.60;28.40;;;;;;5074066;28;20197;-69
2024/02/06 05:25:23;;;;;;;3.38;1.73;;;11.60;28.30;;;;;;5074155;28;20198;-69
2024/02/06 05:27:50;;;;;;;3.22;1.40;;;11.60;28.40;;;;;;5073849;28;20186;-69
2024/02/06 05:30:20;;;;;;;3.85;1.30;;;11.50;28.50;;;;;;5074131;28;20236;-69
2024/02/06 05:32:48;;;;;;;2.20;0.80;;;11.50;28.40;;;;;;5055123;28;20214;-69
2024/02/06 05:35:16;;;;;;;2.95;1.33;;;11.60;28.30;;;;;;5054328;28;20193;-69
2024/02/06 05:37:44;;;;;;;3.78;1.42;;;11.50;28.20;;;;;;5054019;28;20194;-69
2024/02/06 05:40:12;;;;;;;5.95;1.40;;;11.60;28.70;;;;;;5054074;28;20273;-69
2024/02/06 05:42:40;;;;;;;3.88;1.45;;;11.60;28.00;;;;;;5070396;28;20190;-69
2024/02/06 05:45:08;;;;;;;2.30;1.00;;;11.60;28.10;;;;;;5073487;28;20636;-69
2024/02/06 05:47:38;;;;;;;3.78;1.20;;;11.70;28.10;;;;;;5073568;28;20308;-69
2024/02/06 05:50:14;;;;;;;2.72;0.93;;;11.70;27.90;;;;;;5071735;28;20193;-69
2024/02/06 05:52:44;;;;;;;3.92;1.50;;;11.70;27.70;;;;;;5055942;28;20220;-69
2024/02/06 05:55:13;;;;;;;3.85;1.10;;;11.70;27.50;;;;;;5053209;28;20579;-69
2024/02/06 05:57:40;;;;;;;2.40;0.80;;;11.80;27.50;;;;;;5052953;28;20260;-69
2024/02/06 06:00:09;;;;;;;3.30;1.40;;;11.80;27.30;;;;;;5052763;28;20202;-69
2024/02/06 06:02:38;;;;;;;2.83;2.00;;;11.80;27.20;;;;;;5068864;28;20256;-69
2024/02/06 06:05:10;;;;;;;3.03;1.50;;;11.90;27.20;;;;;;5072724;28;20201;-69
2024/02/06 06:07:39;;;;;;;2.97;1.25;;;11.90;27.10;;;;;;5072826;28;20187;-69
2024/02/06 06:10:09;;;;;;;6.40;1.10;;;11.90;27.00;;;;;;5072467;28;20194;-69
2024/02/06 06:12:39;;;;;;;2.63;0.98;;;11.90;27.10;;;;;;5072263;28;20280;-69
2024/02/06 06:15:07;;;;;;;5.22;1.42;;;11.90;27.00;;;;;;5072810;28;20220;-69
2024/02/06 06:17:34;;;;;;;4.88;1.13;;;11.90;26.90;;;;;;5072537;28;20236;-69
2024/02/06 06:20:04;;;;;;;3.80;1.70;;;12.00;27.00;;;;;;5072538;28;20193;-69
2024/02/06 06:22:31;;;;;;;6.18;3.08;;;12.00;27.20;;;;;;5057872;28;20195;-69
2024/02/06 06:24:58;;;;;;;3.45;1.10;;;12.00;26.90;;;;;;5052803;28;20190;-69
2024/02/06 06:27:27;;;;;;;5.07;1.60;;;12.00;27.00;;;;;;5052405;28;20260;-69
2024/02/06 06:29:55;;;;;;;2.83;1.10;;;12.00;27.00;;;;;;5052406;28;20190;-69
2024/02/06 06:32:22;;;;;;;3.35;1.50;;;12.00;27.10;;;;;;5065380;28;20651;-69
2024/02/06 06:34:49;;;;;;;2.85;1.17;;;11.90;27.00;;;;;;5072579;28;20203;-69
2024/02/06 06:37:18;;;;;;;2.88;1.20;;;12.00;27.10;;;;;;5072765;28;20193;-70
2024/02/06 06:39:48;;;;;;;2.92;1.27;;;12.00;27.10;;;;;;5072310;28;20205;-69
2024/02/06 06:42:15;;;;;;;2.40;1.00;;;11.90;27.20;;;;;;5059097;28;20204;-69
2024/02/06 06:44:43;;;;;;;2.63;1.45;;;11.90;27.20;;;;;;5071719;28;20578;-69
2024/02/06 06:47:13;;;;;;;3.97;1.17;;;11.90;27.10;;;;;;5068825;28;20575;-66
2024/02/06 06:49:40;;;;;;;3.95;1.50;;;11.90;27.20;;;;;;5071640;28;20200;-69
2024/02/06 06:52:08;;;;;;;3.55;1.25;;;12.00;26.90;;;;;;5070660;28;20256;-69
2024/02/06 06:54:37;;;;;;;3.80;1.42;;;12.00;26.90;;;;;;5071846;28;20300;-69
2024/02/06 06:57:05;;;;;;;2.38;1.45;;;12.10;26.70;;;;;;5070659;28;20212;-69
2024/02/06 06:59:33;;;;;;;2.63;1.00;;;12.10;26.80;;;;;;5071379;28;20193;-69
2024/02/06 07:02:07;;;;;;;2.05;0.98;;;12.10;26.80;;;;;;5070956;28;20441;-69
2024/02/06 07:04:37;;;;;;;3.63;1.20;;;12.10;26.80;;;;;;5069388;28;20181;-69
2024/02/06 07:07:04;;;;;;;3.47;1.23;;;12.20;26.80;;;;;;5055878;28;20585;-69
2024/02/06 07:09:31;;;;;;;4.80;1.00;;;12.30;26.70;;;;;;5067673;28;20274;-69
2024/02/06 07:12:00;;;;;;;3.70;1.63;;;12.40;26.90;;;;;;5060506;28;20487;-69
2024/02/06 07:14:27;;;;;;;3.90;1.27;;;12.40;26.80;;;;;;5064491;28;20508;-69
2024/02/06 07:16:54;;;;;;;2.70;1.10;;;12.50;26.80;;;;;;5051862;28;20520;-69
2024/02/06 07:19:22;;;;;;;3.07;1.10;;;12.60;26.70;;;;;;5052824;28;20814;-69
2024/02/06 07:21:56;;;;;;;6.30;1.10;;;12.80;26.80;;;;;;5056091;28;20445;-69
2024/02/06 07:24:24;;;;;;;3.77;1.67;;;12.90;26.60;;;;;;5056220;28;20465;-69
2024/02/06 07:26:51;;;;;;;4.73;1.60;;;13.10;26.50;;;;;;5055760;28;20427;-69
2024/02/06 07:29:19;;;;;;;3.70;1.77;;;13.20;26.30;;;;;;5055819;28;20479;-69
2024/02/06 07:31:46;;;;;;;5.10;1.20;;;13.30;26.40;;;;;;5055714;28;20547;-69
2024/02/06 07:34:14;;;;;;;4.00;1.40;;;13.40;26.00;;;;;;5055643;28;20919;-69
2024/02/06 07:36:41;;;;;;;3.70;2.20;;;13.60;26.10;;;;;;5056060;28;21010;-69
2024/02/06 07:39:13;;;;;;;2.67;1.00;;;13.70;26.00;;;;;;5055540;28;20977;-69
2024/02/06 07:41:40;;;;;;;2.00;0.80;;;13.90;26.00;;;;;;5055860;28;20820;-68
2024/02/06 07:44:07;;;;;;;5.93;1.07;;;14.10;26.00;;;;;;5055391;28;20480;-69
2024/02/06 07:46:35;;;;;;;4.10;1.37;;;14.30;25.90;;;;;;5055688;28;20536;-69
2024/02/06 07:49:03;;;;;;;3.77;1.00;;;14.50;26.00;;;;;;5056059;28;20529;-69
2024/02/06 07:51:29;;;;;;;3.27;1.20;;;14.70;25.20;;;;;;5055269;28;20436;-69
2024/02/06 07:53:58;;;;;;;3.63;1.20;;;14.80;25.10;;;;;;5051895;28;20504;-69
2024/02/06 07:56:30;;;;;;;3.43;1.27;;;15.00;25.20;;;;;;5054799;28;20451;-70
2024/02/06 07:58:58;;;;;;;2.73;1.30;;;15.30;25.40;;;;;;5055357;28;20425;-69
2024/02/06 08:01:26;;;;;;;2.60;1.10;;;15.50;24.30;;;;;;5055155;28;20524;-69
2024/02/06 08:03:54;;;;;;;3.33;1.10;;;15.60;24.20;;;;;;5055036;28;20503;-69
2024/02/06 08:06:21;;;;;;;3.20;1.60;;;15.80;24.50;;;;;;5055051;28;20460;-69
2024/02/06 08:08:48;;;;;;;3.27;1.80;;;15.90;24.30;;;;;;5055446;28;20495;-69
2024/02/06 08:11:15;;;;;;;2.63;0.93;;;16.00;23.90;;;;;;5055330;28;20537;-69
2024/02/06 08:13:43;;;;;;;2.20;0.90;;;16.20;24.00;;;;;;5055189;28;20559;-69
2024/02/06 08:16:10;;;;;;;3.10;1.30;;;16.30;23.90;;;;;;5055283;28;20481;-69
2024/02/06 08:18:37;;;;;;;5.50;1.30;;;16.50;23.60;;;;;;5054840;28;20437;-69
2024/02/06 08:21:06;;;;;;;2.30;0.93;;;16.60;23.80;;;;;;5054927;28;20503;-69
2024/02/06 08:23:33;;;;;;;9.83;1.53;;;16.80;23.40;;;;;;5054595;28;20453;-67
2024/02/06 08:26:00;;;;;;;2.67;1.53;;;17.00;23.40;;;;;;5055004;28;20750;-69
2024/02/06 08:28:27;;;;;;;2.70;1.50;;;17.10;23.30;;;;;;5054619;28;20465;-70
2024/02/06 08:30:54;;;;;;;3.37;2.03;;;17.30;23.20;;;;;;5053994;28;20522;-69
2024/02/06 08:33:21;;;;;;;3.73;1.50;;;17.60;23.10;;;;;;5054441;28;20502;-70
2024/02/06 08:35:52;;;;;;;4.30;1.10;;;17.70;23.00;;;;;;5054896;28;20440;-69
2024/02/06 08:38:20;;;;;;;3.00;0.90;;;17.70;23.00;;;;;;5054479;28;20904;-69
2024/02/06 08:40:48;;;;;;;3.30;1.43;;;17.70;22.60;;;;;;5054747;28;20478;-69
2024/02/06 08:43:15;;;;;;;3.20;1.00;;;17.60;22.70;;;;;;5054563;28;20799;-69
2024/02/06 08:45:42;;;;;;;2.57;1.00;;;17.40;22.40;;;;;;5053977;28;20436;-70
2024/02/06 08:48:09;;;;;;;3.53;1.30;;;17.30;22.80;;;;;;5054657;28;20450;-69
2024/02/06 08:50:40;;;;;;;3.27;1.30;;;17.20;23.00;;;;;;5054231;28;20445;-69
2024/02/06 08:53:06;;;;;;;3.60;1.00;;;17.10;23.50;;;;;;5054834;28;20462;-69
2024/02/06 08:55:35;;;;;;;3.97;1.13;;;17.00;23.30;;;;;;5054158;28;21039;-70
2024/02/06 08:58:02;;;;;;;2.57;1.20;;;16.90;23.40;;;;;;5054715;28;21007;-69
2024/02/06 09:00:29;;;;;;;5.93;1.40;;;16.90;24.10;;;;;;5054578;28;20442;-70
2024/02/06 09:02:55;;;;;;;2.57;0.93;;;16.80;23.70;;;;;;5054170;28;20525;-69
2024/02/06 09:05:23;;;;;;;4.50;1.47;;;16.80;23.80;;;;;;5054159;28;20467;-69
2024/02/06 09:07:50;;;;;;;2.63;1.00;;;16.80;24.20;;;;;;5054099;28;20437;-70
2024/02/06 09:10:17;;;;;;;4.17;1.70;;;16.90;24.40;;;;;;5053860;28;20429;-70
2024/02/06 09:12:46;;;;;;;5.10;1.63;;;16.90;24.60;;;;;;5053806;28;20523;-70
2024/02/06 09:15:13;;;;;;;3.07;1.30;;;16.90;24.90;;;;;;5053782;28;20431;-69
2024/02/06 09:17:40;;;;;;;2.20;1.13;;;17.00;24.50;;;;;;5053752;28;20441;-67
2024/02/06 09:20:07;;;;;;;3.70;1.40;;;17.00;24.50;;;;;;5054164;28;20449;-69
2024/02/06 09:22:34;;;;;;;2.10;0.80;;;17.00;24.80;;;;;;5053838;28;20532;-69
2024/02/06 09:25:01;;;;;;;2.60;1.20;;;17.10;24.50;;;;;;5053700;28;20524;-69
2024/02/06 09:27:28;;;;;;;3.97;1.27;;;17.10;24.60;;;;;;5053909;28;20823;-70
2024/02/06 09:29:56;;;;;;;3.40;0.90;;;17.20;24.70;;;;;;5053782;28;20520;-69
2024/02/06 09:32:24;;;;;;;3.60;1.33;;;17.50;24.70;;;;;;5053844;28;20478;-69
2024/02/06 09:34:52;;;;;;;2.70;1.40;;;17.80;24.70;;;;;;5053422;28;20465;-70
2024/02/06 09:37:19;;;;;;;4.90;1.30;;;18.30;24.30;;;;;;5053379;28;20435;-70
2024/02/06 09:39:46;;;;;;;2.50;1.03;;;18.90;24.10;;;;;;5053646;28;20527;-69
2024/02/06 09:42:13;;;;;;;2.53;1.30;;;19.50;24.00;;;;;;5053239;28;20944;-70
2024/02/06 09:44:40;;;;;;;4.20;1.13;;;20.10;23.70;;;;;;5053475;28;20530;-70
2024/02/06 09:47:09;;;;;;;4.20;1.30;;;20.60;23.70;;;;;;5053247;28;20621;-69
2024/02/06 09:49:35;;;;;;;3.30;1.40;;;21.00;23.10;;;;;;5053176;28;20531;-69
2024/02/06 09:52:04;;;;;;;2.73;1.53;;;21.30;22.20;;;;;;5053061;28;20433;-69
2024/02/06 09:54:33;;;;;;;3.00;1.13;;;21.60;22.40;;;;;;5053403;28;20519;-70
2024/02/06 09:57:01;;;;;;;3.30;1.57;;;21.80;22.10;;;;;;5052989;28;20923;-69
2024/02/06 09:59:31;;;;;;;3.93;1.30;;;22.10;22.30;;;;;;5053473;28;20432;-69
2024/02/06 10:01:58;;;;;;;4.60;1.20;;;22.30;21.30;;;;;;5053716;28;20437;-69
2024/02/06 10:04:31;;;;;;;4.40;1.63;;;22.40;21.10;;;;;;5053610;28;20536;-69
2024/02/06 10:06:59;;;;;;;8.93;1.23;;;22.40;21.00;;;;;;5053081;28;20429;-69
2024/02/06 10:09:30;;;;;;;3.47;1.23;;;22.50;21.00;;;;;;5053418;28;20500;-69
2024/02/06 10:12:00;;;;;;;4.17;1.17;;;22.60;20.80;;;;;;5053551;28;20749;-69
2024/02/06 10:14:27;;;;;;;2.80;1.27;;;22.60;20.40;;;;;;5053008;28;20563;-69
2024/02/06 10:16:54;;;;;;;4.73;1.97;;;22.50;20.70;;;;;;5053385;28;20520;-69
2024/02/06 10:19:33;;;;;;;3.10;1.10;;;22.50;20.80;;;;;;5053324;28;20512;-69
2024/02/06 10:22:00;;;;;;;4.80;1.37;;;22.60;20.50;;;;;;5052984;28;20417;-69
2024/02/06 10:24:31;;;;;;;2.87;1.07;;;22.60;20.90;;;;;;5053323;28;20515;-70
2024/02/06 10:27:00;;;;;;;3.17;1.37;;;22.80;20.70;;;;;;5053352;28;20432;-70
2024/02/06 10:29:32;;;;;;;3.47;1.27;;;22.80;20.70;;;;;;5053185;28;20528;-69
2024/02/06 10:31:59;;;;;;;4.97;1.57;;;22.90;20.80;;;;;;5053153;28;20421;-69
2024/02/06 10:34:29;;;;;;;7.50;2.00;;;22.90;20.50;;;;;;5053078;28;20576;-69
2024/02/06 10:37:01;;;;;;;3.27;1.37;;;22.90;20.30;;;;;;5053328;28;20483;-70
2024/02/06 10:39:29;;;;;;;3.93;1.50;;;22.80;20.60;;;;;;5053002;28;20507;-69
2024/02/06 10:42:01;;;;;;;4.87;1.70;;;22.80;20.70;;;;;;5052823;28;20544;-70
2024/02/06 10:44:28;;;;;;;4.10;1.40;;;22.60;19.80;;;;;;5053003;28;20437;-69
2024/02/06 10:46:59;;;;;;;2.87;0.90;;;22.50;20.30;;;;;;5053033;28;20468;-69
2024/02/06 10:49:26;;;;;;;5.43;1.40;;;22.40;20.40;;;;;;5052432;28;20548;-70
2024/02/06 10:52:04;;;;;;;6.60;1.33;;;22.30;20.00;;;;;;5052615;28;20528;-70
2024/02/06 10:54:31;;;;;;;3.33;1.37;;;22.30;20.30;;;;;;5053454;28;20456;-70
2024/02/06 10:57:05;;;;;;;4.90;1.67;;;22.40;20.50;;;;;;5056963;28;20524;-70
2024/02/06 10:59:36;;;;;;;3.87;2.23;;;22.40;20.20;;;;;;5057027;28;20439;-70
2024/02/06 11:02:08;;;;;;;5.33;1.40;;;22.40;20.30;;;;;;5056573;28;20421;-70
2024/02/06 11:04:36;;;;;;;4.17;1.60;;;22.40;20.50;;;;;;5056587;28;20512;-69
2024/02/06 11:07:06;;;;;;;3.87;1.63;;;22.40;20.80;;;;;;5056712;28;20515;-69
2024/02/06 11:09:36;;;;;;;2.60;1.20;;;22.40;20.50;;;;;;5056963;28;20495;-69
2024/02/06 11:12:07;;;;;;;3.80;1.57;;;22.30;20.50;;;;;;5056681;28;20433;-70
2024/02/06 11:14:38;;;;;;;3.47;1.60;;;22.30;20.60;;;;;;5056662;28;20499;-70
2024/02/06 11:17:09;;;;;;;3.30;1.50;;;22.20;20.30;;;;;;5056710;28;20456;-69
2024/02/06 11:19:45;;;;;;;2.87;1.20;;;22.00;20.40;;;;;;5056677;28;20417;-70
2024/02/06 11:22:25;;;;;;;2.70;1.53;;;21.80;20.70;;;;;;5056755;28;20428;-69
2024/02/06 11:24:55;;;;;;;5.80;2.40;;;21.70;20.60;;;;;;5056599;28;20453;-69
2024/02/06 11:27:27;;;;;;;5.80;1.93;;;21.50;21.00;;;;;;5056173;28;20814;-70
2024/02/06 11:29:59;;;;;;;4.57;1.60;;;21.50;21.20;;;;;;5056784;28;20425;-69
2024/02/06 11:32:28;;;;;;;3.40;1.40;;;21.50;21.10;;;;;;5056428;28;20497;-69
2024/02/06 11:35:02;;;;;;;5.57;1.73;;;21.60;21.30;;;;;;5055882;28;20491;-70
2024/02/06 11:37:31;;;;;;;4.10;1.57;;;21.80;21.60;;;;;;5056320;28;20417;-69
2024/02/06 11:40:06;;;;;;;7.83;1.97;;;22.20;21.60;;;;;;5056260;28;20491;-69
2024/02/06 11:42:34;;;;;;;5.40;1.67;;;22.60;21.60;;;;;;5055804;28;20494;-70
2024/02/06 11:45:09;;;;;;;7.53;1.73;;;23.10;20.90;;;;;;5054886;28;20433;-70
2024/02/06 11:47:37;;;;;;;4.00;1.80;;;23.50;20.90;;;;;;5071900;28;20459;-70
2024/02/06 11:50:12;;;;;;;4.47;1.93;;;23.80;20.10;;;;;;5075759;28;20444;-69
2024/02/06 11:52:40;;;;;;;3.67;1.53;;;24.00;20.20;;;;;;5075855;28;20815;-70
2024/02/06 11:55:09;;;;;;;5.33;1.60;;;24.10;20.10;;;;;;5074755;28;20523;-70
2024/02/06 11:57:40;;;;;;;4.90;2.10;;;24.30;20.20;;;;;;5075860;28;20462;-70
2024/02/06 12:00:10;;;;;;;5.60;1.50;;;24.50;20.40;;;;;;5075963;28;20416;-70
2024/02/06 12:02:41;;;;;;;4.50;2.07;;;24.80;20.00;;;;;;5075842;28;20448;-70
2024/02/06 12:05:09;;;;;;;8.33;1.73;;;24.90;19.50;;;;;;5069051;28;20524;-70
2024/02/06 12:07:39;;;;;;;5.03;2.03;;;25.10;19.10;;;;;;5055808;28;20790;-70
2024/02/06 12:10:08;;;;;;;3.80;1.40;;;25.40;19.10;;;;;;5075704;28;20421;-70
2024/02/06 12:12:41;;;;;;;4.17;1.90;;;25.70;18.70;;;;;;5075608;28;20456;-70
2024/02/06 12:15:09;;;;;;;4.80;2.10;;;25.80;18.20;;;;;;5075715;28;20416;-70
2024/02/06 12:17:39;;;;;;;7.03;1.90;;;25.80;18.20;;;;;;5075464;28;20463;-70
2024/02/06 12:20:07;;;;;;;7.60;1.97;;;25.90;18.40;;;;;;5075439;28;20436;-70
2024/02/06 12:22:40;;;;;;;5.57;1.87;;;26.00;18.10;;;;;;5075127;28;20485;-70
2024/02/06 12:25:13;;;;;;;5.40;2.13;;;26.20;18.20;;;;;;5075445;28;20425;-70
2024/02/06 12:27:40;;;;;;;5.63;2.00;;;26.30;18.20;;;;;;5074985;28;20507;-70
2024/02/06 12:30:09;;;;;;;3.80;1.90;;;26.10;17.90;;;;;;5075244;28;20435;-70
2024/02/06 12:32:39;;;;;;;4.73;1.90;;;25.80;18.00;;;;;;5075187;28;20460;-70
2024/02/06 12:35:09;;;;;;;5.40;2.23;;;25.50;18.20;;;;;;5075377;28;20475;-70
2024/02/06 12:37:47;;;;;;;3.97;1.87;;;25.10;18.50;;;;;;5075306;28;20786;-70
2024/02/06 12:40:19;;;;;;;4.60;2.30;;;24.70;18.60;;;;;;5075104;28;20424;-69
2024/02/06 12:42:49;;;;;;;7.63;1.73;;;24.30;18.70;;;;;;5075067;28;20432;-69
2024/02/06 12:45:19;;;;;;;8.63;2.13;;;24.00;19.10;;;;;;5074990;28;20428;-70
2024/02/06 12:47:55;;;;;;;5.73;2.00;;;23.60;19.20;;;;;;5074586;28;20495;-70
2024/02/06 12:50:22;;;;;;;7.60;2.57;;;23.30;19.70;;;;;;5074843;28;20824;-70
2024/02/06 12:52:52;;;;;;;5.77;1.53;;;23.10;20.20;;;;;;5075062;28;20440;-70
2024/02/06 12:55:21;;;;;;;4.50;2.10;;;22.80;20.30;;;;;;5074618;28;20472;-69
2024/02/06 12:57:51;;;;;;;10.60;2.50;;;22.60;20.10;;;;;;5074721;28;20420;-70